sensor_id;sensor_type;location;lat;lon;timestamp;P1;durP1;ratioP1;P2;durP2;ratioP2
3571;SDS011;7958;53.024;12.970;2023-07-20T00:02:21;3.23;;;3.03;;
3571;SDS011;7958;53.024;12.970;2023-07-20T00:04:49;4.00;;;3.70;;
3571;SDS011;7958;53.024;12.970;2023-07-20T00:07:16;4.00;;;3.70;;
3571;SDS011;7958;53.024;12.970;2023-07-20T00:09:42;3.70;;;3.40;;
3571;SDS011;7958;53.024;12.970;2023-07-20T00:12:09;4.40;;;4.10;;
3571;SDS011;7958;53.024;12.970;2023-07-20T00:14:35;5.03;;;4.33;;
3571;SDS011;7958;53.024;12.970;2023-07-20T00:17:02;4.33;;;3.93;;
3571;SDS011;7958;53.024;12.970;2023-07-20T00:19:29;4.23;;;3.83;;
3571;SDS011;7958;53.024;12.970;2023-07-20T00:21:58;4.57;;;4.17;;
3571;SDS011;7958;53.024;12.970;2023-07-20T00:24:25;4.10;;;3.70;;
3571;SDS011;7958;53.024;12.970;2023-07-20T00:26:52;4.63;;;4.23;;
3571;SDS011;7958;53.024;12.970;2023-07-20T00:29:18;4.93;;;4.43;;
3571;SDS011;7958;53.024;12.970;2023-07-20T00:31:45;4.13;;;3.83;;
3571;SDS011;7958;53.024;12.970;2023-07-20T00:34:11;5.43;;;4.97;;
3571;SDS011;7958;53.024;12.970;2023-07-20T00:36:38;4.60;;;4.20;;
3571;SDS011;7958;53.024;12.970;2023-07-20T00:39:05;4.77;;;4.30;;
3571;SDS011;7958;53.024;12.970;2023-07-20T00:41:34;6.20;;;4.30;;
3571;SDS011;7958;53.024;12.970;2023-07-20T00:44:00;4.70;;;4.30;;
3571;SDS011;7958;53.024;12.970;2023-07-20T00:46:27;6.67;;;5.30;;
3571;SDS011;7958;53.024;12.970;2023-07-20T00:48:54;3.73;;;3.43;;
3571;SDS011;7958;53.024;12.970;2023-07-20T00:51:21;4.80;;;4.40;;
3571;SDS011;7958;53.024;12.970;2023-07-20T00:53:49;5.37;;;4.13;;
3571;SDS011;7958;53.024;12.970;2023-07-20T00:56:17;5.87;;;4.20;;
3571;SDS011;7958;53.024;12.970;2023-07-20T00:58:43;5.43;;;5.00;;
3571;SDS011;7958;53.024;12.970;2023-07-20T01:01:10;4.93;;;4.53;;
3571;SDS011;7958;53.024;12.970;2023-07-20T01:03:37;7.40;;;4.30;;
3571;SDS011;7958;53.024;12.970;2023-07-20T01:06:05;4.60;;;4.03;;
3571;SDS011;7958;53.024;12.970;2023-07-20T01:08:39;4.40;;;3.90;;
3571;SDS011;7958;53.024;12.970;2023-07-20T01:11:10;5.40;;;4.13;;
3571;SDS011;7958;53.024;12.970;2023-07-20T01:13:42;4.33;;;4.00;;
3571;SDS011;7958;53.024;12.970;2023-07-20T01:16:09;4.20;;;3.80;;
3571;SDS011;7958;53.024;12.970;2023-07-20T01:18:35;5.00;;;4.40;;
3571;SDS011;7958;53.024;12.970;2023-07-20T01:21:03;4.80;;;4.37;;
3571;SDS011;7958;53.024;12.970;2023-07-20T01:23:35;4.10;;;3.70;;
3571;SDS011;7958;53.024;12.970;2023-07-20T01:26:27;4.43;;;4.13;;
3571;SDS011;7958;53.024;12.970;2023-07-20T01:29:12;4.50;;;4.13;;
3571;SDS011;7958;53.024;12.970;2023-07-20T01:31:45;4.60;;;4.20;;
3571;SDS011;7958;53.024;12.970;2023-07-20T01:34:13;3.80;;;3.50;;
3571;SDS011;7958;53.024;12.970;2023-07-20T01:36:43;4.43;;;4.03;;
3571;SDS011;7958;53.024;12.970;2023-07-20T01:39:10;4.67;;;4.13;;
3571;SDS011;7958;53.024;12.970;2023-07-20T01:41:37;4.93;;;4.53;;
3571;SDS011;7958;53.024;12.970;2023-07-20T01:44:04;5.10;;;4.60;;
3571;SDS011;7958;53.024;12.970;2023-07-20T01:46:30;5.10;;;4.70;;
3571;SDS011;7958;53.024;12.970;2023-07-20T01:49:00;4.83;;;4.43;;
3571;SDS011;7958;53.024;12.970;2023-07-20T01:51:26;6.00;;;5.37;;
3571;SDS011;7958;53.024;12.970;2023-07-20T01:53:53;5.60;;;5.00;;
3571;SDS011;7958;53.024;12.970;2023-07-20T01:56:19;6.23;;;4.50;;
3571;SDS011;7958;53.024;12.970;2023-07-20T01:58:46;5.87;;;5.40;;
3571;SDS011;7958;53.024;12.970;2023-07-20T02:01:12;6.07;;;4.97;;
3571;SDS011;7958;53.024;12.970;2023-07-20T02:03:39;5.87;;;5.37;;
3571;SDS011;7958;53.024;12.970;2023-07-20T02:06:07;7.00;;;6.07;;
3571;SDS011;7958;53.024;12.970;2023-07-20T02:08:34;8.00;;;5.47;;
3571;SDS011;7958;53.024;12.970;2023-07-20T02:11:00;5.83;;;4.90;;
3571;SDS011;7958;53.024;12.970;2023-07-20T02:13:27;5.43;;;5.00;;
3571;SDS011;7958;53.024;12.970;2023-07-20T02:15:53;6.83;;;6.13;;
3571;SDS011;7958;53.024;12.970;2023-07-20T02:18:20;8.20;;;6.53;;
3571;SDS011;7958;53.024;12.970;2023-07-20T02:20:46;6.30;;;5.70;;
3571;SDS011;7958;53.024;12.970;2023-07-20T02:23:14;6.53;;;5.90;;
3571;SDS011;7958;53.024;12.970;2023-07-20T02:25:41;5.57;;;5.07;;
3571;SDS011;7958;53.024;12.970;2023-07-20T02:28:07;5.97;;;5.37;;
3571;SDS011;7958;53.024;12.970;2023-07-20T02:30:36;5.50;;;5.10;;
3571;SDS011;7958;53.024;12.970;2023-07-20T02:33:03;10.20;;;4.80;;
3571;SDS011;7958;53.024;12.970;2023-07-20T02:35:31;8.83;;;5.40;;
3571;SDS011;7958;53.024;12.970;2023-07-20T02:37:57;5.33;;;4.83;;
3571;SDS011;7958;53.024;12.970;2023-07-20T02:40:25;6.07;;;5.27;;
3571;SDS011;7958;53.024;12.970;2023-07-20T02:42:52;6.10;;;5.60;;
3571;SDS011;7958;53.024;12.970;2023-07-20T02:45:19;8.37;;;6.80;;
3571;SDS011;7958;53.024;12.970;2023-07-20T02:47:45;6.20;;;5.50;;
3571;SDS011;7958;53.024;12.970;2023-07-20T02:50:11;6.20;;;5.60;;
3571;SDS011;7958;53.024;12.970;2023-07-20T02:52:39;5.77;;;5.17;;
3571;SDS011;7958;53.024;12.970;2023-07-20T02:55:05;5.90;;;5.40;;
3571;SDS011;7958;53.024;12.970;2023-07-20T02:57:34;5.97;;;5.37;;
3571;SDS011;7958;53.024;12.970;2023-07-20T03:00:00;7.90;;;5.33;;
3571;SDS011;7958;53.024;12.970;2023-07-20T03:02:29;5.73;;;5.20;;
3571;SDS011;7958;53.024;12.970;2023-07-20T03:04:56;7.13;;;4.93;;
3571;SDS011;7958;53.024;12.970;2023-07-20T03:07:26;5.70;;;5.10;;
3571;SDS011;7958;53.024;12.970;2023-07-20T03:09:52;5.30;;;4.80;;
3571;SDS011;7958;53.024;12.970;2023-07-20T03:12:20;5.67;;;5.20;;
3571;SDS011;7958;53.024;12.970;2023-07-20T03:14:48;6.00;;;5.50;;
3571;SDS011;7958;53.024;12.970;2023-07-20T03:17:15;5.33;;;4.77;;
3571;SDS011;7958;53.024;12.970;2023-07-20T03:19:41;5.37;;;4.87;;
3571;SDS011;7958;53.024;12.970;2023-07-20T03:22:08;5.67;;;5.20;;
3571;SDS011;7958;53.024;12.970;2023-07-20T03:24:34;7.83;;;6.00;;
3571;SDS011;7958;53.024;12.970;2023-07-20T03:27:00;6.50;;;5.90;;
3571;SDS011;7958;53.024;12.970;2023-07-20T03:29:27;6.10;;;5.60;;
3571;SDS011;7958;53.024;12.970;2023-07-20T03:31:56;6.03;;;5.33;;
3571;SDS011;7958;53.024;12.970;2023-07-20T03:34:24;5.87;;;4.67;;
3571;SDS011;7958;53.024;12.970;2023-07-20T03:36:51;7.03;;;6.33;;
3571;SDS011;7958;53.024;12.970;2023-07-20T03:39:18;6.70;;;5.90;;
3571;SDS011;7958;53.024;12.970;2023-07-20T03:41:45;6.20;;;5.70;;
3571;SDS011;7958;53.024;12.970;2023-07-20T03:44:11;6.73;;;6.10;;
3571;SDS011;7958;53.024;12.970;2023-07-20T03:46:38;7.47;;;5.70;;
3571;SDS011;7958;53.024;12.970;2023-07-20T03:49:06;5.63;;;5.10;;
3571;SDS011;7958;53.024;12.970;2023-07-20T03:51:34;9.77;;;6.63;;
3571;SDS011;7958;53.024;12.970;2023-07-20T03:54:02;7.53;;;6.83;;
3571;SDS011;7958;53.024;12.970;2023-07-20T03:56:28;9.33;;;6.17;;
3571;SDS011;7958;53.024;12.970;2023-07-20T03:58:59;12.03;;;6.30;;
3571;SDS011;7958;53.024;12.970;2023-07-20T04:01:26;7.37;;;6.67;;
3571;SDS011;7958;53.024;12.970;2023-07-20T04:03:52;8.47;;;7.00;;
3571;SDS011;7958;53.024;12.970;2023-07-20T04:06:22;5.87;;;5.37;;
3571;SDS011;7958;53.024;12.970;2023-07-20T04:08:49;7.30;;;5.93;;
3571;SDS011;7958;53.024;12.970;2023-07-20T04:11:15;6.50;;;5.83;;
3571;SDS011;7958;53.024;12.970;2023-07-20T04:13:42;8.67;;;7.00;;
3571;SDS011;7958;53.024;12.970;2023-07-20T04:16:08;7.80;;;5.97;;
3571;SDS011;7958;53.024;12.970;2023-07-20T04:18:35;7.40;;;6.00;;
3571;SDS011;7958;53.024;12.970;2023-07-20T04:21:02;12.40;;;6.73;;
3571;SDS011;7958;53.024;12.970;2023-07-20T04:23:30;7.50;;;6.80;;
3571;SDS011;7958;53.024;12.970;2023-07-20T04:25:57;9.83;;;7.00;;
3571;SDS011;7958;53.024;12.970;2023-07-20T04:28:24;6.40;;;5.90;;
3571;SDS011;7958;53.024;12.970;2023-07-20T04:30:50;7.30;;;6.60;;
3571;SDS011;7958;53.024;12.970;2023-07-20T04:33:18;8.10;;;7.40;;
3571;SDS011;7958;53.024;12.970;2023-07-20T04:35:45;10.63;;;7.43;;
3571;SDS011;7958;53.024;12.970;2023-07-20T04:38:13;9.27;;;7.87;;
3571;SDS011;7958;53.024;12.970;2023-07-20T04:40:42;10.73;;;6.80;;
3571;SDS011;7958;53.024;12.970;2023-07-20T04:43:09;10.60;;;6.60;;
3571;SDS011;7958;53.024;12.970;2023-07-20T04:45:35;7.90;;;7.20;;
3571;SDS011;7958;53.024;12.970;2023-07-20T04:48:02;8.60;;;7.07;;
3571;SDS011;7958;53.024;12.970;2023-07-20T04:50:28;10.03;;;7.97;;
3571;SDS011;7958;53.024;12.970;2023-07-20T04:52:55;8.87;;;7.67;;
3571;SDS011;7958;53.024;12.970;2023-07-20T04:55:21;8.33;;;7.53;;
3571;SDS011;7958;53.024;12.970;2023-07-20T04:57:49;10.80;;;6.87;;
3571;SDS011;7958;53.024;12.970;2023-07-20T05:00:16;7.20;;;6.50;;
3571;SDS011;7958;53.024;12.970;2023-07-20T05:02:44;7.23;;;6.53;;
3571;SDS011;7958;53.024;12.970;2023-07-20T05:05:12;7.17;;;6.23;;
3571;SDS011;7958;53.024;12.970;2023-07-20T05:07:39;6.40;;;5.67;;
3571;SDS011;7958;53.024;12.970;2023-07-20T05:10:06;6.80;;;5.87;;
3571;SDS011;7958;53.024;12.970;2023-07-20T05:12:36;7.60;;;6.60;;
3571;SDS011;7958;53.024;12.970;2023-07-20T05:15:05;8.30;;;5.70;;
3571;SDS011;7958;53.024;12.970;2023-07-20T05:17:33;6.10;;;5.60;;
3571;SDS011;7958;53.024;12.970;2023-07-20T05:20:00;6.20;;;5.70;;
3571;SDS011;7958;53.024;12.970;2023-07-20T05:22:26;5.93;;;5.43;;
3571;SDS011;7958;53.024;12.970;2023-07-20T05:24:53;6.20;;;5.60;;
3571;SDS011;7958;53.024;12.970;2023-07-20T05:27:20;7.77;;;5.30;;
3571;SDS011;7958;53.024;12.970;2023-07-20T05:29:46;11.07;;;5.20;;
3571;SDS011;7958;53.024;12.970;2023-07-20T05:32:14;6.77;;;5.50;;
3571;SDS011;7958;53.024;12.970;2023-07-20T05:34:41;7.23;;;5.70;;
3571;SDS011;7958;53.024;12.970;2023-07-20T05:37:07;5.37;;;4.90;;
3571;SDS011;7958;53.024;12.970;2023-07-20T05:39:34;6.57;;;4.90;;
3571;SDS011;7958;53.024;12.970;2023-07-20T05:42:00;6.67;;;4.50;;
3571;SDS011;7958;53.024;12.970;2023-07-20T05:44:27;5.37;;;4.87;;
3571;SDS011;7958;53.024;12.970;2023-07-20T05:46:53;4.17;;;3.67;;
3571;SDS011;7958;53.024;12.970;2023-07-20T05:49:22;4.10;;;3.80;;
3571;SDS011;7958;53.024;12.970;2023-07-20T05:51:48;3.93;;;3.63;;
3571;SDS011;7958;53.024;12.970;2023-07-20T05:54:15;4.03;;;3.70;;
3571;SDS011;7958;53.024;12.970;2023-07-20T05:56:41;7.30;;;3.50;;
3571;SDS011;7958;53.024;12.970;2023-07-20T05:59:07;3.70;;;3.40;;
3571;SDS011;7958;53.024;12.970;2023-07-20T06:01:34;3.90;;;3.10;;
3571;SDS011;7958;53.024;12.970;2023-07-20T06:04:00;3.43;;;3.17;;
3571;SDS011;7958;53.024;12.970;2023-07-20T06:06:28;5.90;;;3.20;;
3571;SDS011;7958;53.024;12.970;2023-07-20T06:08:54;4.50;;;3.07;;
3571;SDS011;7958;53.024;12.970;2023-07-20T06:11:20;2.80;;;2.60;;
3571;SDS011;7958;53.024;12.970;2023-07-20T06:13:47;2.60;;;2.50;;
3571;SDS011;7958;53.024;12.970;2023-07-20T06:16:13;5.27;;;2.60;;
3571;SDS011;7958;53.024;12.970;2023-07-20T06:18:40;3.70;;;2.73;;
3571;SDS011;7958;53.024;12.970;2023-07-20T06:21:06;3.40;;;3.10;;
3571;SDS011;7958;53.024;12.970;2023-07-20T06:23:34;4.20;;;3.00;;
3571;SDS011;7958;53.024;12.970;2023-07-20T06:26:00;2.93;;;2.73;;
3571;SDS011;7958;53.024;12.970;2023-07-20T06:28:27;3.40;;;2.63;;
3571;SDS011;7958;53.024;12.970;2023-07-20T06:30:58;2.67;;;2.27;;
3571;SDS011;7958;53.024;12.970;2023-07-20T06:33:25;2.90;;;2.60;;
3571;SDS011;7958;53.024;12.970;2023-07-20T06:35:52;4.73;;;1.90;;
3571;SDS011;7958;53.024;12.970;2023-07-20T06:38:19;3.30;;;2.10;;
3571;SDS011;7958;53.024;12.970;2023-07-20T06:40:47;1.83;;;1.73;;
3571;SDS011;7958;53.024;12.970;2023-07-20T06:43:13;3.70;;;1.93;;
3571;SDS011;7958;53.024;12.970;2023-07-20T06:45:40;1.80;;;1.50;;
3571;SDS011;7958;53.024;12.970;2023-07-20T06:48:08;1.80;;;1.53;;
3571;SDS011;7958;53.024;12.970;2023-07-20T06:50:34;1.60;;;1.50;;
3571;SDS011;7958;53.024;12.970;2023-07-20T06:53:01;4.43;;;1.90;;
3571;SDS011;7958;53.024;12.970;2023-07-20T06:55:29;3.87;;;3.10;;
3571;SDS011;7958;53.024;12.970;2023-07-20T06:57:57;2.73;;;1.43;;
3571;SDS011;7958;53.024;12.970;2023-07-20T07:00:24;1.70;;;1.60;;
3571;SDS011;7958;53.024;12.970;2023-07-20T07:02:50;1.83;;;1.43;;
3571;SDS011;7958;53.024;12.970;2023-07-20T07:05:18;1.57;;;1.47;;
3571;SDS011;7958;53.024;12.970;2023-07-20T07:07:44;2.37;;;1.43;;
3571;SDS011;7958;53.024;12.970;2023-07-20T07:10:13;1.60;;;1.50;;
3571;SDS011;7958;53.024;12.970;2023-07-20T07:12:40;2.00;;;1.60;;
3571;SDS011;7958;53.024;12.970;2023-07-20T07:15:09;7.20;;;3.10;;
3571;SDS011;7958;53.024;12.970;2023-07-20T07:17:36;1.50;;;1.30;;
3571;SDS011;7958;53.024;12.970;2023-07-20T07:20:03;2.60;;;1.10;;
3571;SDS011;7958;53.024;12.970;2023-07-20T07:22:32;1.40;;;1.13;;
3571;SDS011;7958;53.024;12.970;2023-07-20T07:24:59;2.00;;;1.10;;
3571;SDS011;7958;53.024;12.970;2023-07-20T07:27:25;1.77;;;1.13;;
3571;SDS011;7958;53.024;12.970;2023-07-20T07:29:52;1.90;;;1.50;;
3571;SDS011;7958;53.024;12.970;2023-07-20T07:32:22;1.10;;;1.10;;
3571;SDS011;7958;53.024;12.970;2023-07-20T07:34:50;1.23;;;1.20;;
3571;SDS011;7958;53.024;12.970;2023-07-20T07:37:17;1.20;;;1.20;;
3571;SDS011;7958;53.024;12.970;2023-07-20T07:39:45;3.07;;;1.20;;
3571;SDS011;7958;53.024;12.970;2023-07-20T07:42:15;1.30;;;1.20;;
3571;SDS011;7958;53.024;12.970;2023-07-20T07:44:41;0.97;;;0.97;;
3571;SDS011;7958;53.024;12.970;2023-07-20T07:47:09;1.20;;;1.20;;
3571;SDS011;7958;53.024;12.970;2023-07-20T07:49:39;1.30;;;1.20;;
3571;SDS011;7958;53.024;12.970;2023-07-20T07:52:06;1.27;;;1.00;;
3571;SDS011;7958;53.024;12.970;2023-07-20T07:54:34;1.60;;;1.50;;
3571;SDS011;7958;53.024;12.970;2023-07-20T07:57:00;3.70;;;1.30;;
3571;SDS011;7958;53.024;12.970;2023-07-20T07:59:27;1.43;;;1.30;;
3571;SDS011;7958;53.024;12.970;2023-07-20T08:01:54;2.60;;;1.60;;
3571;SDS011;7958;53.024;12.970;2023-07-20T08:04:21;3.23;;;1.40;;
3571;SDS011;7958;53.024;12.970;2023-07-20T08:06:49;1.60;;;1.50;;
3571;SDS011;7958;53.024;12.970;2023-07-20T08:09:16;4.03;;;2.30;;
3571;SDS011;7958;53.024;12.970;2023-07-20T08:11:46;3.17;;;1.90;;
3571;SDS011;7958;53.024;12.970;2023-07-20T08:14:13;2.10;;;1.90;;
3571;SDS011;7958;53.024;12.970;2023-07-20T08:16:40;5.00;;;2.10;;
3571;SDS011;7958;53.024;12.970;2023-07-20T08:19:08;2.67;;;1.70;;
3571;SDS011;7958;53.024;12.970;2023-07-20T08:21:35;2.73;;;1.70;;
3571;SDS011;7958;53.024;12.970;2023-07-20T08:24:09;1.53;;;1.43;;
3571;SDS011;7958;53.024;12.970;2023-07-20T08:26:37;1.70;;;1.60;;
3571;SDS011;7958;53.024;12.970;2023-07-20T08:29:03;2.70;;;1.90;;
3571;SDS011;7958;53.024;12.970;2023-07-20T08:31:30;2.00;;;1.90;;
3571;SDS011;7958;53.024;12.970;2023-07-20T08:33:56;2.27;;;2.07;;
3571;SDS011;7958;53.024;12.970;2023-07-20T08:36:23;1.90;;;1.80;;
3571;SDS011;7958;53.024;12.970;2023-07-20T08:38:50;2.00;;;1.90;;
3571;SDS011;7958;53.024;12.970;2023-07-20T08:41:18;2.10;;;2.00;;
3571;SDS011;7958;53.024;12.970;2023-07-20T08:43:45;2.23;;;2.03;;
3571;SDS011;7958;53.024;12.970;2023-07-20T08:46:13;2.00;;;1.90;;
3571;SDS011;7958;53.024;12.970;2023-07-20T08:48:42;2.53;;;1.63;;
3571;SDS011;7958;53.024;12.970;2023-07-20T08:51:09;2.23;;;1.83;;
3571;SDS011;7958;53.024;12.970;2023-07-20T08:53:36;1.60;;;1.50;;
3571;SDS011;7958;53.024;12.970;2023-07-20T08:56:03;1.53;;;1.43;;
3571;SDS011;7958;53.024;12.970;2023-07-20T08:58:32;6.60;;;1.70;;
3571;SDS011;7958;53.024;12.970;2023-07-20T09:01:00;2.40;;;1.70;;
3571;SDS011;7958;53.024;12.970;2023-07-20T09:03:27;1.87;;;1.77;;
3571;SDS011;7958;53.024;12.970;2023-07-20T09:05:54;3.80;;;1.67;;
3571;SDS011;7958;53.024;12.970;2023-07-20T09:08:20;2.53;;;1.73;;
3571;SDS011;7958;53.024;12.970;2023-07-20T09:10:46;3.70;;;1.43;;
3571;SDS011;7958;53.024;12.970;2023-07-20T09:13:14;1.33;;;1.33;;
3571;SDS011;7958;53.024;12.970;2023-07-20T09:15:44;1.43;;;1.33;;
3571;SDS011;7958;53.024;12.970;2023-07-20T09:18:11;1.60;;;1.50;;
3571;SDS011;7958;53.024;12.970;2023-07-20T09:20:38;1.90;;;1.80;;
3571;SDS011;7958;53.024;12.970;2023-07-20T09:23:04;2.00;;;1.90;;
3571;SDS011;7958;53.024;12.970;2023-07-20T09:25:31;2.00;;;1.50;;
3571;SDS011;7958;53.024;12.970;2023-07-20T09:28:01;1.50;;;1.40;;
3571;SDS011;7958;53.024;12.970;2023-07-20T09:30:29;1.30;;;1.20;;
3571;SDS011;7958;53.024;12.970;2023-07-20T09:32:57;2.93;;;1.40;;
3571;SDS011;7958;53.024;12.970;2023-07-20T09:35:24;3.00;;;1.50;;
3571;SDS011;7958;53.024;12.970;2023-07-20T09:37:54;1.00;;;0.90;;
3571;SDS011;7958;53.024;12.970;2023-07-20T09:40:21;0.93;;;0.93;;
3571;SDS011;7958;53.024;12.970;2023-07-20T09:42:48;1.17;;;1.17;;
3571;SDS011;7958;53.024;12.970;2023-07-20T09:45:18;1.17;;;1.07;;
3571;SDS011;7958;53.024;12.970;2023-07-20T09:47:48;1.17;;;1.00;;
3571;SDS011;7958;53.024;12.970;2023-07-20T09:50:17;1.50;;;1.27;;
3571;SDS011;7958;53.024;12.970;2023-07-20T09:52:43;1.70;;;1.33;;
3571;SDS011;7958;53.024;12.970;2023-07-20T09:55:10;1.57;;;1.30;;
3571;SDS011;7958;53.024;12.970;2023-07-20T09:57:37;1.10;;;0.90;;
3571;SDS011;7958;53.024;12.970;2023-07-20T10:00:04;0.90;;;0.90;;
3571;SDS011;7958;53.024;12.970;2023-07-20T10:02:41;0.97;;;0.90;;
3571;SDS011;7958;53.024;12.970;2023-07-20T10:05:09;0.87;;;0.87;;
3571;SDS011;7958;53.024;12.970;2023-07-20T10:07:40;2.70;;;0.90;;
3571;SDS011;7958;53.024;12.970;2023-07-20T10:10:10;2.20;;;1.10;;
3571;SDS011;7958;53.024;12.970;2023-07-20T10:12:39;1.50;;;0.80;;
3571;SDS011;7958;53.024;12.970;2023-07-20T10:15:09;2.10;;;0.90;;
3571;SDS011;7958;53.024;12.970;2023-07-20T10:17:40;2.90;;;1.10;;
3571;SDS011;7958;53.024;12.970;2023-07-20T10:20:14;0.80;;;0.80;;
3571;SDS011;7958;53.024;12.970;2023-07-20T10:22:44;1.00;;;0.90;;
3571;SDS011;7958;53.024;12.970;2023-07-20T10:25:11;0.80;;;0.80;;
3571;SDS011;7958;53.024;12.970;2023-07-20T10:27:38;1.00;;;0.87;;
3571;SDS011;7958;53.024;12.970;2023-07-20T10:30:06;0.80;;;0.80;;
3571;SDS011;7958;53.024;12.970;2023-07-20T10:32:33;0.93;;;0.90;;
3571;SDS011;7958;53.024;12.970;2023-07-20T10:34:59;1.77;;;0.93;;
3571;SDS011;7958;53.024;12.970;2023-07-20T10:40:27;1.07;;;0.70;;
3571;SDS011;7958;53.024;12.970;2023-07-20T10:43:01;1.03;;;0.80;;
3571;SDS011;7958;53.024;12.970;2023-07-20T10:45:33;1.47;;;0.80;;
3571;SDS011;7958;53.024;12.970;2023-07-20T10:48:02;3.37;;;1.00;;
3571;SDS011;7958;53.024;12.970;2023-07-20T10:50:30;2.60;;;1.00;;
3571;SDS011;7958;53.024;12.970;2023-07-20T10:53:06;2.10;;;0.83;;
3571;SDS011;7958;53.024;12.970;2023-07-20T10:55:36;0.90;;;0.90;;
3571;SDS011;7958;53.024;12.970;2023-07-20T10:58:06;0.80;;;0.80;;
3571;SDS011;7958;53.024;12.970;2023-07-20T11:00:34;2.00;;;1.33;;
3571;SDS011;7958;53.024;12.970;2023-07-20T11:03:01;0.90;;;0.90;;
3571;SDS011;7958;53.024;12.970;2023-07-20T11:05:32;1.53;;;0.70;;
3571;SDS011;7958;53.024;12.970;2023-07-20T11:08:00;2.90;;;0.90;;
3571;SDS011;7958;53.024;12.970;2023-07-20T11:10:27;0.90;;;0.90;;
3571;SDS011;7958;53.024;12.970;2023-07-20T11:16:02;2.70;;;1.23;;
3571;SDS011;7958;53.024;12.970;2023-07-20T11:18:30;4.33;;;0.80;;
3571;SDS011;7958;53.024;12.970;2023-07-20T11:20:59;1.67;;;0.90;;
3571;SDS011;7958;53.024;12.970;2023-07-20T11:23:25;0.90;;;0.90;;
3571;SDS011;7958;53.024;12.970;2023-07-20T11:25:53;1.23;;;1.00;;
3571;SDS011;7958;53.024;12.970;2023-07-20T11:28:20;0.80;;;0.80;;
3571;SDS011;7958;53.024;12.970;2023-07-20T11:30:50;2.17;;;0.97;;
3571;SDS011;7958;53.024;12.970;2023-07-20T11:33:18;2.10;;;1.10;;
3571;SDS011;7958;53.024;12.970;2023-07-20T11:35:44;1.00;;;0.97;;
3571;SDS011;7958;53.024;12.970;2023-07-20T11:38:12;2.80;;;0.90;;
3571;SDS011;7958;53.024;12.970;2023-07-20T11:40:42;2.10;;;0.90;;
3571;SDS011;7958;53.024;12.970;2023-07-20T11:43:11;1.03;;;0.93;;
3571;SDS011;7958;53.024;12.970;2023-07-20T11:45:38;1.93;;;0.90;;
3571;SDS011;7958;53.024;12.970;2023-07-20T11:48:05;1.10;;;0.97;;
3571;SDS011;7958;53.024;12.970;2023-07-20T11:50:32;0.93;;;0.93;;
3571;SDS011;7958;53.024;12.970;2023-07-20T11:53:05;1.77;;;1.00;;
3571;SDS011;7958;53.024;12.970;2023-07-20T11:55:31;0.80;;;0.73;;
3571;SDS011;7958;53.024;12.970;2023-07-20T11:58:02;1.37;;;0.83;;
3571;SDS011;7958;53.024;12.970;2023-07-20T12:00:30;0.80;;;0.70;;
3571;SDS011;7958;53.024;12.970;2023-07-20T12:02:57;1.70;;;0.90;;
3571;SDS011;7958;53.024;12.970;2023-07-20T12:05:23;0.83;;;0.83;;
3571;SDS011;7958;53.024;12.970;2023-07-20T12:07:51;1.03;;;0.93;;
3571;SDS011;7958;53.024;12.970;2023-07-20T12:10:23;1.40;;;1.00;;
3571;SDS011;7958;53.024;12.970;2023-07-20T12:12:50;2.60;;;0.87;;
3571;SDS011;7958;53.024;12.970;2023-07-20T12:15:20;6.83;;;1.43;;
3571;SDS011;7958;53.024;12.970;2023-07-20T12:17:52;0.87;;;0.87;;
3571;SDS011;7958;53.024;12.970;2023-07-20T12:20:25;0.97;;;0.87;;
3571;SDS011;7958;53.024;12.970;2023-07-20T12:22:55;1.10;;;1.00;;
3571;SDS011;7958;53.024;12.970;2023-07-20T12:25:23;1.00;;;1.00;;
3571;SDS011;7958;53.024;12.970;2023-07-20T12:28:04;3.80;;;1.07;;
3571;SDS011;7958;53.024;12.970;2023-07-20T12:30:33;0.83;;;0.83;;
3571;SDS011;7958;53.024;12.970;2023-07-20T12:33:04;0.90;;;0.90;;
3571;SDS011;7958;53.024;12.970;2023-07-20T12:35:31;1.30;;;1.20;;
3571;SDS011;7958;53.024;12.970;2023-07-20T12:37:57;1.10;;;0.97;;
3571;SDS011;7958;53.024;12.970;2023-07-20T12:40:24;2.50;;;1.00;;
3571;SDS011;7958;53.024;12.970;2023-07-20T12:42:51;2.63;;;0.90;;
3571;SDS011;7958;53.024;12.970;2023-07-20T12:45:17;1.30;;;1.20;;
3571;SDS011;7958;53.024;12.970;2023-07-20T12:47:43;1.10;;;1.00;;
3571;SDS011;7958;53.024;12.970;2023-07-20T12:50:11;0.80;;;0.80;;
3571;SDS011;7958;53.024;12.970;2023-07-20T12:52:38;2.30;;;1.20;;
3571;SDS011;7958;53.024;12.970;2023-07-20T12:55:06;1.50;;;0.90;;
3571;SDS011;7958;53.024;12.970;2023-07-20T12:57:33;1.13;;;1.00;;
3571;SDS011;7958;53.024;12.970;2023-07-20T13:00:00;0.90;;;0.90;;
3571;SDS011;7958;53.024;12.970;2023-07-20T13:02:29;1.07;;;1.07;;
3571;SDS011;7958;53.024;12.970;2023-07-20T13:04:56;1.17;;;1.10;;
3571;SDS011;7958;53.024;12.970;2023-07-20T13:07:30;1.10;;;1.00;;
3571;SDS011;7958;53.024;12.970;2023-07-20T13:09:58;2.97;;;1.00;;
3571;SDS011;7958;53.024;12.970;2023-07-20T13:12:26;3.10;;;1.17;;
3571;SDS011;7958;53.024;12.970;2023-07-20T13:14:52;2.53;;;1.30;;
3571;SDS011;7958;53.024;12.970;2023-07-20T13:17:23;1.20;;;1.10;;
3571;SDS011;7958;53.024;12.970;2023-07-20T13:19:49;7.17;;;1.60;;
3571;SDS011;7958;53.024;12.970;2023-07-20T13:22:16;12.70;;;2.60;;
3571;SDS011;7958;53.024;12.970;2023-07-20T13:24:45;5.03;;;1.17;;
3571;SDS011;7958;53.024;12.970;2023-07-20T13:27:13;4.63;;;1.70;;
3571;SDS011;7958;53.024;12.970;2023-07-20T13:29:40;7.47;;;1.90;;
3571;SDS011;7958;53.024;12.970;2023-07-20T13:32:07;1.17;;;1.13;;
3571;SDS011;7958;53.024;12.970;2023-07-20T13:34:34;3.57;;;1.20;;
3571;SDS011;7958;53.024;12.970;2023-07-20T13:37:00;1.60;;;1.50;;
3571;SDS011;7958;53.024;12.970;2023-07-20T13:39:26;1.20;;;1.10;;
3571;SDS011;7958;53.024;12.970;2023-07-20T13:41:55;3.80;;;1.20;;
3571;SDS011;7958;53.024;12.970;2023-07-20T13:44:21;1.10;;;1.10;;
3571;SDS011;7958;53.024;12.970;2023-07-20T13:46:47;1.77;;;1.30;;
3571;SDS011;7958;53.024;12.970;2023-07-20T13:49:14;2.97;;;1.30;;
3571;SDS011;7958;53.024;12.970;2023-07-20T13:51:41;7.50;;;1.57;;
3571;SDS011;7958;53.024;12.970;2023-07-20T13:54:08;3.77;;;1.50;;
3571;SDS011;7958;53.024;12.970;2023-07-20T13:56:34;2.20;;;1.30;;
3571;SDS011;7958;53.024;12.970;2023-07-20T13:59:03;2.10;;;1.47;;
3571;SDS011;7958;53.024;12.970;2023-07-20T14:01:30;1.60;;;1.23;;
3571;SDS011;7958;53.024;12.970;2023-07-20T14:03:58;4.00;;;1.60;;
3571;SDS011;7958;53.024;12.970;2023-07-20T14:06:24;1.67;;;1.20;;
3571;SDS011;7958;53.024;12.970;2023-07-20T14:08:51;2.17;;;1.47;;
3571;SDS011;7958;53.024;12.970;2023-07-20T14:11:18;2.20;;;1.40;;
3571;SDS011;7958;53.024;12.970;2023-07-20T14:13:45;3.37;;;1.20;;
3571;SDS011;7958;53.024;12.970;2023-07-20T14:16:15;2.70;;;1.30;;
3571;SDS011;7958;53.024;12.970;2023-07-20T14:18:43;4.53;;;1.10;;
3571;SDS011;7958;53.024;12.970;2023-07-20T14:21:12;1.33;;;1.20;;
3571;SDS011;7958;53.024;12.970;2023-07-20T14:23:40;2.73;;;1.70;;
3571;SDS011;7958;53.024;12.970;2023-07-20T14:26:11;3.30;;;1.20;;
3571;SDS011;7958;53.024;12.970;2023-07-20T14:28:38;1.30;;;1.20;;
3571;SDS011;7958;53.024;12.970;2023-07-20T14:31:05;1.40;;;1.07;;
3571;SDS011;7958;53.024;12.970;2023-07-20T14:33:33;3.23;;;1.27;;
3571;SDS011;7958;53.024;12.970;2023-07-20T14:36:00;1.83;;;1.40;;
3571;SDS011;7958;53.024;12.970;2023-07-20T14:38:27;1.30;;;1.30;;
3571;SDS011;7958;53.024;12.970;2023-07-20T14:40:56;1.40;;;1.30;;
3571;SDS011;7958;53.024;12.970;2023-07-20T14:43:23;1.30;;;1.20;;
3571;SDS011;7958;53.024;12.970;2023-07-20T14:45:49;3.27;;;1.47;;
3571;SDS011;7958;53.024;12.970;2023-07-20T14:48:16;1.23;;;1.13;;
3571;SDS011;7958;53.024;12.970;2023-07-20T14:50:43;2.17;;;1.50;;
3571;SDS011;7958;53.024;12.970;2023-07-20T14:53:12;1.23;;;1.13;;
3571;SDS011;7958;53.024;12.970;2023-07-20T14:55:41;2.50;;;1.30;;
3571;SDS011;7958;53.024;12.970;2023-07-20T14:58:10;3.83;;;1.40;;
3571;SDS011;7958;53.024;12.970;2023-07-20T15:00:37;1.83;;;1.00;;
3571;SDS011;7958;53.024;12.970;2023-07-20T15:03:03;1.20;;;1.10;;
3571;SDS011;7958;53.024;12.970;2023-07-20T15:05:30;1.37;;;1.10;;
3571;SDS011;7958;53.024;12.970;2023-07-20T15:07:58;0.90;;;0.90;;
3571;SDS011;7958;53.024;12.970;2023-07-20T15:10:25;1.30;;;1.20;;